sensor_id;sensor_type;location;lat;lon;timestamp;temperature;humidity
76263;DHT22;65080;50.908;6.916;2022-11-25T00:01:30;8.90;72.90
76263;DHT22;65080;50.908;6.916;2022-11-25T00:03:59;8.90;72.90
76263;DHT22;65080;50.908;6.916;2022-11-25T00:06:28;8.90;72.90
76263;DHT22;65080;50.908;6.916;2022-11-25T00:08:59;8.90;72.80
76263;DHT22;65080;50.908;6.916;2022-11-25T00:11:29;8.90;72.70
76263;DHT22;65080;50.908;6.916;2022-11-25T00:13:57;8.90;72.70
76263;DHT22;65080;50.908;6.916;2022-11-25T00:16:26;8.90;72.80
76263;DHT22;65080;50.908;6.916;2022-11-25T00:18:56;8.90;72.80
76263;DHT22;65080;50.908;6.916;2022-11-25T00:21:26;8.90;72.80
76263;DHT22;65080;50.908;6.916;2022-11-25T00:23:56;8.90;72.90
76263;DHT22;65080;50.908;6.916;2022-11-25T00:26:27;8.90;72.90
76263;DHT22;65080;50.908;6.916;2022-11-25T00:28:57;8.90;72.90
76263;DHT22;65080;50.908;6.916;2022-11-25T00:31:27;8.90;72.90
76263;DHT22;65080;50.908;6.916;2022-11-25T00:33:56;8.90;72.90
76263;DHT22;65080;50.908;6.916;2022-11-25T00:36:26;8.90;73.00
76263;DHT22;65080;50.908;6.916;2022-11-25T00:38:56;8.90;73.00
76263;DHT22;65080;50.908;6.916;2022-11-25T00:41:26;9.00;73.00
76263;DHT22;65080;50.908;6.916;2022-11-25T00:44:16;8.90;73.00
76263;DHT22;65080;50.908;6.916;2022-11-25T00:47:07;9.10;73.20
76263;DHT22;65080;50.908;6.916;2022-11-25T00:49:36;9.00;73.10
76263;DHT22;65080;50.908;6.916;2022-11-25T00:52:05;9.00;73.20
76263;DHT22;65080;50.908;6.916;2022-11-25T00:54:33;9.00;73.30
76263;DHT22;65080;50.908;6.916;2022-11-25T00:57:03;9.00;73.40
76263;DHT22;65080;50.908;6.916;2022-11-25T00:59:31;9.00;73.50
76263;DHT22;65080;50.908;6.916;2022-11-25T01:02:00;9.10;73.60
76263;DHT22;65080;50.908;6.916;2022-11-25T01:04:28;9.10;73.60
76263;DHT22;65080;50.908;6.916;2022-11-25T01:06:56;9.10;73.60
76263;DHT22;65080;50.908;6.916;2022-11-25T01:09:26;9.20;73.60
76263;DHT22;65080;50.908;6.916;2022-11-25T01:11:54;9.20;73.60
76263;DHT22;65080;50.908;6.916;2022-11-25T01:14:25;9.10;73.50
76263;DHT22;65080;50.908;6.916;2022-11-25T01:16:53;9.20;73.70
76263;DHT22;65080;50.908;6.916;2022-11-25T01:19:22;9.20;73.70
76263;DHT22;65080;50.908;6.916;2022-11-25T01:21:50;9.20;73.80
76263;DHT22;65080;50.908;6.916;2022-11-25T01:24:19;9.30;73.90
76263;DHT22;65080;50.908;6.916;2022-11-25T01:26:50;9.30;73.90
76263;DHT22;65080;50.908;6.916;2022-11-25T01:29:18;9.30;73.90
76263;DHT22;65080;50.908;6.916;2022-11-25T01:31:48;9.30;73.90
76263;DHT22;65080;50.908;6.916;2022-11-25T01:34:18;9.20;73.90
76263;DHT22;65080;50.908;6.916;2022-11-25T01:36:47;9.30;74.00
76263;DHT22;65080;50.908;6.916;2022-11-25T01:39:17;9.30;74.00
76263;DHT22;65080;50.908;6.916;2022-11-25T01:41:46;9.30;74.10
76263;DHT22;65080;50.908;6.916;2022-11-25T01:44:17;9.20;74.10
76263;DHT22;65080;50.908;6.916;2022-11-25T01:46:59;9.20;74.20
76263;DHT22;65080;50.908;6.916;2022-11-25T01:49:33;9.20;74.30
76263;DHT22;65080;50.908;6.916;2022-11-25T01:52:06;9.20;74.30
76263;DHT22;65080;50.908;6.916;2022-11-25T01:54:39;9.20;74.30
76263;DHT22;65080;50.908;6.916;2022-11-25T01:57:10;9.20;74.40
76263;DHT22;65080;50.908;6.916;2022-11-25T01:59:43;9.30;74.50
76263;DHT22;65080;50.908;6.916;2022-11-25T02:02:15;9.20;74.50
76263;DHT22;65080;50.908;6.916;2022-11-25T02:04:44;9.20;74.50
76263;DHT22;65080;50.908;6.916;2022-11-25T02:07:18;9.20;74.50
76263;DHT22;65080;50.908;6.916;2022-11-25T02:09:49;9.20;74.60
76263;DHT22;65080;50.908;6.916;2022-11-25T02:12:19;9.20;74.70
76263;DHT22;65080;50.908;6.916;2022-11-25T02:14:48;9.20;74.80
76263;DHT22;65080;50.908;6.916;2022-11-25T02:17:19;9.20;74.80
76263;DHT22;65080;50.908;6.916;2022-11-25T02:19:55;9.20;74.90
76263;DHT22;65080;50.908;6.916;2022-11-25T02:22:43;9.20;75.00
76263;DHT22;65080;50.908;6.916;2022-11-25T02:25:16;9.20;75.10
76263;DHT22;65080;50.908;6.916;2022-11-25T02:27:49;9.20;75.10
76263;DHT22;65080;50.908;6.916;2022-11-25T02:30:19;9.20;75.10
76263;DHT22;65080;50.908;6.916;2022-11-25T02:32:47;9.20;75.20
76263;DHT22;65080;50.908;6.916;2022-11-25T02:35:27;9.20;75.20
76263;DHT22;65080;50.908;6.916;2022-11-25T02:38:00;9.20;75.30
76263;DHT22;65080;50.908;6.916;2022-11-25T02:40:31;9.20;75.30
76263;DHT22;65080;50.908;6.916;2022-11-25T02:43:02;9.30;75.40
76263;DHT22;65080;50.908;6.916;2022-11-25T02:45:40;9.30;75.50
76263;DHT22;65080;50.908;6.916;2022-11-25T02:48:09;9.30;75.50
76263;DHT22;65080;50.908;6.916;2022-11-25T02:50:37;9.30;75.50
76263;DHT22;65080;50.908;6.916;2022-11-25T02:53:06;9.30;75.60
76263;DHT22;65080;50.908;6.916;2022-11-25T02:55:35;9.30;75.70
76263;DHT22;65080;50.908;6.916;2022-11-25T02:58:04;9.40;75.70
76263;DHT22;65080;50.908;6.916;2022-11-25T03:00:32;9.40;75.70
76263;DHT22;65080;50.908;6.916;2022-11-25T03:03:00;9.40;75.80
76263;DHT22;65080;50.908;6.916;2022-11-25T03:05:28;9.40;75.80
76263;DHT22;65080;50.908;6.916;2022-11-25T03:07:57;9.50;76.00
76263;DHT22;65080;50.908;6.916;2022-11-25T03:10:25;9.40;75.90
76263;DHT22;65080;50.908;6.916;2022-11-25T03:12:55;9.50;76.00
76263;DHT22;65080;50.908;6.916;2022-11-25T03:15:23;9.50;76.00
76263;DHT22;65080;50.908;6.916;2022-11-25T03:17:52;9.60;76.10
76263;DHT22;65080;50.908;6.916;2022-11-25T03:20:20;9.60;76.10
76263;DHT22;65080;50.908;6.916;2022-11-25T03:22:49;9.70;76.20
76263;DHT22;65080;50.908;6.916;2022-11-25T03:25:17;9.70;76.10
76263;DHT22;65080;50.908;6.916;2022-11-25T03:27:46;9.70;76.00
76263;DHT22;65080;50.908;6.916;2022-11-25T03:30:17;9.70;76.70
76263;DHT22;65080;50.908;6.916;2022-11-25T03:32:46;9.70;76.00
76263;DHT22;65080;50.908;6.916;2022-11-25T03:35:15;9.70;75.90
76263;DHT22;65080;50.908;6.916;2022-11-25T03:37:44;9.80;76.10
76263;DHT22;65080;50.908;6.916;2022-11-25T03:40:13;9.80;76.00
76263;DHT22;65080;50.908;6.916;2022-11-25T03:42:42;9.80;76.10
76263;DHT22;65080;50.908;6.916;2022-11-25T03:45:24;9.90;76.20
76263;DHT22;65080;50.908;6.916;2022-11-25T03:47:52;9.90;76.20
76263;DHT22;65080;50.908;6.916;2022-11-25T03:50:20;9.90;76.10
76263;DHT22;65080;50.908;6.916;2022-11-25T03:52:48;10.00;75.00
76263;DHT22;65080;50.908;6.916;2022-11-25T03:55:17;10.00;75.00
76263;DHT22;65080;50.908;6.916;2022-11-25T03:57:45;10.00;74.90
76263;DHT22;65080;50.908;6.916;2022-11-25T04:00:13;10.00;74.90
76263;DHT22;65080;50.908;6.916;2022-11-25T04:02:43;10.00;74.80
76263;DHT22;65080;50.908;6.916;2022-11-25T04:05:11;10.10;74.80
76263;DHT22;65080;50.908;6.916;2022-11-25T04:07:39;10.10;74.70
76263;DHT22;65080;50.908;6.916;2022-11-25T04:10:09;10.10;74.70
76263;DHT22;65080;50.908;6.916;2022-11-25T04:12:37;10.10;74.70
76263;DHT22;65080;50.908;6.916;2022-11-25T04:15:14;10.10;74.60
76263;DHT22;65080;50.908;6.916;2022-11-25T04:17:44;10.10;74.70
76263;DHT22;65080;50.908;6.916;2022-11-25T04:20:13;10.10;74.70
76263;DHT22;65080;50.908;6.916;2022-11-25T04:22:42;10.10;74.80
76263;DHT22;65080;50.908;6.916;2022-11-25T04:25:10;10.20;75.00
76263;DHT22;65080;50.908;6.916;2022-11-25T04:27:39;10.20;75.00
76263;DHT22;65080;50.908;6.916;2022-11-25T04:30:08;10.20;74.90
76263;DHT22;65080;50.908;6.916;2022-11-25T04:32:36;10.20;74.90
76263;DHT22;65080;50.908;6.916;2022-11-25T04:35:07;10.20;74.90
76263;DHT22;65080;50.908;6.916;2022-11-25T04:37:35;10.20;74.90
76263;DHT22;65080;50.908;6.916;2022-11-25T04:40:05;10.30;75.00
76263;DHT22;65080;50.908;6.916;2022-11-25T04:42:34;10.30;75.10
76263;DHT22;65080;50.908;6.916;2022-11-25T04:45:05;10.30;75.10
76263;DHT22;65080;50.908;6.916;2022-11-25T04:47:50;10.30;75.20
76263;DHT22;65080;50.908;6.916;2022-11-25T04:50:21;10.30;75.30
76263;DHT22;65080;50.908;6.916;2022-11-25T04:52:50;10.30;75.40
76263;DHT22;65080;50.908;6.916;2022-11-25T04:55:18;10.30;75.40
76263;DHT22;65080;50.908;6.916;2022-11-25T04:57:46;10.30;75.50
76263;DHT22;65080;50.908;6.916;2022-11-25T05:00:15;10.30;75.70
76263;DHT22;65080;50.908;6.916;2022-11-25T05:02:43;10.30;75.80
76263;DHT22;65080;50.908;6.916;2022-11-25T05:05:11;10.30;75.90
76263;DHT22;65080;50.908;6.916;2022-11-25T05:07:41;10.30;76.00
76263;DHT22;65080;50.908;6.916;2022-11-25T05:10:09;10.40;76.20
76263;DHT22;65080;50.908;6.916;2022-11-25T05:12:37;10.40;76.20
76263;DHT22;65080;50.908;6.916;2022-11-25T05:15:07;10.30;76.30
76263;DHT22;65080;50.908;6.916;2022-11-25T05:17:36;10.30;76.40
76263;DHT22;65080;50.908;6.916;2022-11-25T05:20:06;10.40;76.60
76263;DHT22;65080;50.908;6.916;2022-11-25T05:22:35;10.30;76.60
76263;DHT22;65080;50.908;6.916;2022-11-25T05:25:05;10.30;76.70
76263;DHT22;65080;50.908;6.916;2022-11-25T05:27:33;10.30;76.80
76263;DHT22;65080;50.908;6.916;2022-11-25T05:30:01;10.30;77.00
76263;DHT22;65080;50.908;6.916;2022-11-25T05:32:30;10.40;77.40
76263;DHT22;65080;50.908;6.916;2022-11-25T05:34:58;10.30;77.00
76263;DHT22;65080;50.908;6.916;2022-11-25T05:37:26;10.40;77.30
76263;DHT22;65080;50.908;6.916;2022-11-25T05:39:54;10.30;77.20
76263;DHT22;65080;50.908;6.916;2022-11-25T05:42:25;10.30;77.30
76263;DHT22;65080;50.908;6.916;2022-11-25T05:44:55;10.40;77.50
76263;DHT22;65080;50.908;6.916;2022-11-25T05:47:24;10.30;77.50
76263;DHT22;65080;50.908;6.916;2022-11-25T05:49:52;10.30;77.70
76263;DHT22;65080;50.908;6.916;2022-11-25T05:52:20;10.40;77.80
76263;DHT22;65080;50.908;6.916;2022-11-25T05:54:48;10.40;77.90
76263;DHT22;65080;50.908;6.916;2022-11-25T05:57:23;10.30;77.90
76263;DHT22;65080;50.908;6.916;2022-11-25T05:59:52;10.40;78.00
76263;DHT22;65080;50.908;6.916;2022-11-25T06:02:20;10.40;78.00
76263;DHT22;65080;50.908;6.916;2022-11-25T06:04:49;10.30;77.90
76263;DHT22;65080;50.908;6.916;2022-11-25T06:07:17;10.30;78.00
76263;DHT22;65080;50.908;6.916;2022-11-25T06:09:45;10.30;78.20
76263;DHT22;65080;50.908;6.916;2022-11-25T06:12:13;10.20;78.10
76263;DHT22;65080;50.908;6.916;2022-11-25T06:14:42;10.30;78.40
76263;DHT22;65080;50.908;6.916;2022-11-25T06:17:11;10.30;78.50
76263;DHT22;65080;50.908;6.916;2022-11-25T06:19:40;10.20;78.40
76263;DHT22;65080;50.908;6.916;2022-11-25T06:22:08;10.20;78.50
76263;DHT22;65080;50.908;6.916;2022-11-25T06:24:36;10.30;78.60
76263;DHT22;65080;50.908;6.916;2022-11-25T06:27:04;10.20;78.50
76263;DHT22;65080;50.908;6.916;2022-11-25T06:29:32;10.20;78.60
76263;DHT22;65080;50.908;6.916;2022-11-25T06:32:01;10.30;78.70
76263;DHT22;65080;50.908;6.916;2022-11-25T06:34:31;10.20;79.30
76263;DHT22;65080;50.908;6.916;2022-11-25T06:37:00;10.20;78.70
76263;DHT22;65080;50.908;6.916;2022-11-25T06:39:28;10.10;78.80
76263;DHT22;65080;50.908;6.916;2022-11-25T06:41:56;10.20;78.90
76263;DHT22;65080;50.908;6.916;2022-11-25T06:44:24;10.10;78.80
76263;DHT22;65080;50.908;6.916;2022-11-25T06:46:52;10.10;78.90
76263;DHT22;65080;50.908;6.916;2022-11-25T06:49:21;10.10;79.00
76263;DHT22;65080;50.908;6.916;2022-11-25T06:51:50;10.10;78.90
76263;DHT22;65080;50.908;6.916;2022-11-25T06:54:19;10.20;79.00
76263;DHT22;65080;50.908;6.916;2022-11-25T06:56:47;10.20;79.00
76263;DHT22;65080;50.908;6.916;2022-11-25T06:59:17;10.20;79.00
76263;DHT22;65080;50.908;6.916;2022-11-25T07:01:46;10.20;78.90
76263;DHT22;65080;50.908;6.916;2022-11-25T07:04:14;10.30;79.00
76263;DHT22;65080;50.908;6.916;2022-11-25T07:06:43;10.30;79.00
76263;DHT22;65080;50.908;6.916;2022-11-25T07:09:12;10.30;79.00
76263;DHT22;65080;50.908;6.916;2022-11-25T07:11:40;10.30;78.90
76263;DHT22;65080;50.908;6.916;2022-11-25T07:14:12;10.30;78.90
76263;DHT22;65080;50.908;6.916;2022-11-25T07:16:43;10.20;78.80
76263;DHT22;65080;50.908;6.916;2022-11-25T07:19:13;10.20;78.90
76263;DHT22;65080;50.908;6.916;2022-11-25T07:21:42;10.20;78.90
76263;DHT22;65080;50.908;6.916;2022-11-25T07:24:14;10.10;78.80
76263;DHT22;65080;50.908;6.916;2022-11-25T07:26:43;10.10;78.80
76263;DHT22;65080;50.908;6.916;2022-11-25T07:29:13;10.00;78.80
76263;DHT22;65080;50.908;6.916;2022-11-25T07:32:02;10.10;78.90
76263;DHT22;65080;50.908;6.916;2022-11-25T07:34:36;10.00;79.40
76263;DHT22;65080;50.908;6.916;2022-11-25T07:37:05;10.00;78.70
76263;DHT22;65080;50.908;6.916;2022-11-25T07:39:35;10.00;78.70
76263;DHT22;65080;50.908;6.916;2022-11-25T07:42:04;9.90;79.50
76263;DHT22;65080;50.908;6.916;2022-11-25T07:44:32;9.90;79.40
76263;DHT22;65080;50.908;6.916;2022-11-25T07:47:00;9.90;79.50
76263;DHT22;65080;50.908;6.916;2022-11-25T07:49:28;9.80;79.40
76263;DHT22;65080;50.908;6.916;2022-11-25T07:51:57;9.80;79.50
76263;DHT22;65080;50.908;6.916;2022-11-25T07:54:28;9.70;79.60
76263;DHT22;65080;50.908;6.916;2022-11-25T07:56:58;9.70;79.80
76263;DHT22;65080;50.908;6.916;2022-11-25T07:59:26;9.70;80.00
76263;DHT22;65080;50.908;6.916;2022-11-25T08:01:55;9.60;80.00
76263;DHT22;65080;50.908;6.916;2022-11-25T08:04:23;9.60;80.00
76263;DHT22;65080;50.908;6.916;2022-11-25T08:06:52;9.70;80.20
76263;DHT22;65080;50.908;6.916;2022-11-25T08:09:22;9.70;80.30
76263;DHT22;65080;50.908;6.916;2022-11-25T08:11:51;9.60;80.30
76263;DHT22;65080;50.908;6.916;2022-11-25T08:14:21;9.60;80.40
76263;DHT22;65080;50.908;6.916;2022-11-25T08:16:49;9.50;81.10
76263;DHT22;65080;50.908;6.916;2022-11-25T08:19:18;9.60;80.70
76263;DHT22;65080;50.908;6.916;2022-11-25T08:21:46;9.60;80.80
76263;DHT22;65080;50.908;6.916;2022-11-25T08:24:17;9.60;80.90
76263;DHT22;65080;50.908;6.916;2022-11-25T08:26:47;9.60;81.10
76263;DHT22;65080;50.908;6.916;2022-11-25T08:29:17;9.70;81.20
76263;DHT22;65080;50.908;6.916;2022-11-25T08:31:47;9.70;81.30
76263;DHT22;65080;50.908;6.916;2022-11-25T08:34:17;9.80;81.40
76263;DHT22;65080;50.908;6.916;2022-11-25T08:36:45;9.80;81.40
76263;DHT22;65080;50.908;6.916;2022-11-25T08:39:16;9.90;81.50
76263;DHT22;65080;50.908;6.916;2022-11-25T08:42:05;9.90;81.60
76263;DHT22;65080;50.908;6.916;2022-11-25T08:44:33;10.00;80.50
76263;DHT22;65080;50.908;6.916;2022-11-25T08:47:03;10.00;80.50
76263;DHT22;65080;50.908;6.916;2022-11-25T08:49:31;10.10;80.60
76263;DHT22;65080;50.908;6.916;2022-11-25T08:52:07;10.20;80.70
76263;DHT22;65080;50.908;6.916;2022-11-25T08:54:35;10.30;80.70
76263;DHT22;65080;50.908;6.916;2022-11-25T08:57:04;10.30;80.50
76263;DHT22;65080;50.908;6.916;2022-11-25T08:59:32;10.40;80.60
76263;DHT22;65080;50.908;6.916;2022-11-25T09:02:02;10.40;80.50
76263;DHT22;65080;50.908;6.916;2022-11-25T09:04:31;10.50;80.50
76263;DHT22;65080;50.908;6.916;2022-11-25T09:07:00;10.50;80.40
76263;DHT22;65080;50.908;6.916;2022-11-25T09:09:28;10.60;80.40
76263;DHT22;65080;50.908;6.916;2022-11-25T09:11:56;10.70;80.40
76263;DHT22;65080;50.908;6.916;2022-11-25T09:14:25;10.70;80.30
76263;DHT22;65080;50.908;6.916;2022-11-25T09:16:53;10.70;80.20
76263;DHT22;65080;50.908;6.916;2022-11-25T09:19:24;10.80;80.70
76263;DHT22;65080;50.908;6.916;2022-11-25T09:21:53;10.90;79.90
76263;DHT22;65080;50.908;6.916;2022-11-25T09:24:21;10.90;79.80
76263;DHT22;65080;50.908;6.916;2022-11-25T09:26:49;11.00;79.80
76263;DHT22;65080;50.908;6.916;2022-11-25T09:29:18;11.10;79.80
76263;DHT22;65080;50.908;6.916;2022-11-25T09:31:46;11.10;79.60
76263;DHT22;65080;50.908;6.916;2022-11-25T09:34:21;11.20;79.40
76263;DHT22;65080;50.908;6.916;2022-11-25T09:36:50;11.20;79.30
76263;DHT22;65080;50.908;6.916;2022-11-25T09:39:19;11.30;79.10
76263;DHT22;65080;50.908;6.916;2022-11-25T09:41:55;11.30;78.80
76263;DHT22;65080;50.908;6.916;2022-11-25T09:44:57;11.30;78.40
76263;DHT22;65080;50.908;6.916;2022-11-25T09:47:49;11.30;78.10
76263;DHT22;65080;50.908;6.916;2022-11-25T09:50:33;11.50;78.00
76263;DHT22;65080;50.908;6.916;2022-11-25T09:53:15;11.50;77.80
76263;DHT22;65080;50.908;6.916;2022-11-25T09:55:50;11.60;77.70
76263;DHT22;65080;50.908;6.916;2022-11-25T09:58:31;11.60;77.50
76263;DHT22;65080;50.908;6.916;2022-11-25T10:01:03;11.70;77.30
76263;DHT22;65080;50.908;6.916;2022-11-25T10:03:38;11.70;77.00
76263;DHT22;65080;50.908;6.916;2022-11-25T10:06:11;11.80;76.80
76263;DHT22;65080;50.908;6.916;2022-11-25T10:08:45;11.80;76.50
76263;DHT22;65080;50.908;6.916;2022-11-25T10:11:32;11.90;76.40
76263;DHT22;65080;50.908;6.916;2022-11-25T10:14:06;11.90;76.10
76263;DHT22;65080;50.908;6.916;2022-11-25T10:16:41;12.00;76.10
76263;DHT22;65080;50.908;6.916;2022-11-25T10:19:23;12.10;76.00
76263;DHT22;65080;50.908;6.916;2022-11-25T10:21:55;12.20;75.90
76263;DHT22;65080;50.908;6.916;2022-11-25T10:24:25;12.30;75.70
76263;DHT22;65080;50.908;6.916;2022-11-25T10:26:57;12.20;74.90
76263;DHT22;65080;50.908;6.916;2022-11-25T10:29:27;12.20;74.60
76263;DHT22;65080;50.908;6.916;2022-11-25T10:32:04;12.30;74.40
76263;DHT22;65080;50.908;6.916;2022-11-25T10:34:39;12.30;74.00
76263;DHT22;65080;50.908;6.916;2022-11-25T10:37:12;12.40;73.80
76263;DHT22;65080;50.908;6.916;2022-11-25T10:39:44;12.40;73.70
76263;DHT22;65080;50.908;6.916;2022-11-25T10:42:14;12.50;73.40
76263;DHT22;65080;50.908;6.916;2022-11-25T10:44:45;12.50;72.90
76263;DHT22;65080;50.908;6.916;2022-11-25T10:47:32;12.50;72.80
76263;DHT22;65080;50.908;6.916;2022-11-25T10:50:14;12.60;72.50
76263;DHT22;65080;50.908;6.916;2022-11-25T10:52:49;12.60;72.10
76263;DHT22;65080;50.908;6.916;2022-11-25T10:55:21;12.60;72.00
76263;DHT22;65080;50.908;6.916;2022-11-25T10:57:52;12.60;71.80
76263;DHT22;65080;50.908;6.916;2022-11-25T11:00:27;12.70;71.60
76263;DHT22;65080;50.908;6.916;2022-11-25T11:02:57;12.70;71.30
76263;DHT22;65080;50.908;6.916;2022-11-25T11:05:28;12.80;71.40
76263;DHT22;65080;50.908;6.916;2022-11-25T11:08:14;12.80;71.10
76263;DHT22;65080;50.908;6.916;2022-11-25T11:10:45;12.90;70.80
76263;DHT22;65080;50.908;6.916;2022-11-25T11:13:23;13.00;70.60
76263;DHT22;65080;50.908;6.916;2022-11-25T11:15:53;13.00;70.10
76263;DHT22;65080;50.908;6.916;2022-11-25T11:18:26;13.10;69.90
76263;DHT22;65080;50.908;6.916;2022-11-25T11:20:56;13.20;69.70
76263;DHT22;65080;50.908;6.916;2022-11-25T11:23:27;13.20;69.50
76263;DHT22;65080;50.908;6.916;2022-11-25T11:26:00;13.30;69.40
76263;DHT22;65080;50.908;6.916;2022-11-25T11:28:38;13.30;69.60
76263;DHT22;65080;50.908;6.916;2022-11-25T11:31:15;13.40;68.90
76263;DHT22;65080;50.908;6.916;2022-11-25T11:33:55;13.50;68.50
76263;DHT22;65080;50.908;6.916;2022-11-25T11:36:33;13.50;68.10
76263;DHT22;65080;50.908;6.916;2022-11-25T11:39:14;13.50;68.10
76263;DHT22;65080;50.908;6.916;2022-11-25T11:41:52;13.40;67.60
76263;DHT22;65080;50.908;6.916;2022-11-25T11:44:28;13.40;67.80
76263;DHT22;65080;50.908;6.916;2022-11-25T11:47:09;13.40;67.60
76263;DHT22;65080;50.908;6.916;2022-11-25T11:50:06;13.40;67.50
76263;DHT22;65080;50.908;6.916;2022-11-25T11:52:49;13.40;67.50
76263;DHT22;65080;50.908;6.916;2022-11-25T11:55:35;13.40;67.50
76263;DHT22;65080;50.908;6.916;2022-11-25T11:58:15;13.50;67.40
76263;DHT22;65080;50.908;6.916;2022-11-25T12:00:54;13.50;67.30
76263;DHT22;65080;50.908;6.916;2022-11-25T12:03:27;13.50;67.30
76263;DHT22;65080;50.908;6.916;2022-11-25T12:05:58;13.50;67.00
76263;DHT22;65080;50.908;6.916;2022-11-25T12:08:32;13.50;66.70
76263;DHT22;65080;50.908;6.916;2022-11-25T12:11:10;13.50;66.70
76263;DHT22;65080;50.908;6.916;2022-11-25T12:13:47;13.50;66.40
76263;DHT22;65080;50.908;6.916;2022-11-25T12:16:20;13.50;66.40
76263;DHT22;65080;50.908;6.916;2022-11-25T12:18:55;13.50;66.40
76263;DHT22;65080;50.908;6.916;2022-11-25T12:21:37;13.50;66.10
76263;DHT22;65080;50.908;6.916;2022-11-25T12:24:15;13.40;65.40
76263;DHT22;65080;50.908;6.916;2022-11-25T12:26:50;13.40;65.30
76263;DHT22;65080;50.908;6.916;2022-11-25T12:29:27;13.50;65.20
76263;DHT22;65080;50.908;6.916;2022-11-25T12:32:22;13.50;65.00
76263;DHT22;65080;50.908;6.916;2022-11-25T12:35:00;13.50;64.60
76263;DHT22;65080;50.908;6.916;2022-11-25T12:37:33;13.40;64.70
76263;DHT22;65080;50.908;6.916;2022-11-25T12:40:06;13.50;64.90
76263;DHT22;65080;50.908;6.916;2022-11-25T12:42:40;13.40;64.60
76263;DHT22;65080;50.908;6.916;2022-11-25T12:45:16;13.50;64.70
76263;DHT22;65080;50.908;6.916;2022-11-25T12:47:45;13.40;64.40
76263;DHT22;65080;50.908;6.916;2022-11-25T12:50:15;13.30;64.30
76263;DHT22;65080;50.908;6.916;2022-11-25T12:52:50;13.30;64.40
76263;DHT22;65080;50.908;6.916;2022-11-25T12:55:21;13.40;64.30
76263;DHT22;65080;50.908;6.916;2022-11-25T12:58:17;13.30;64.10
76263;DHT22;65080;50.908;6.916;2022-11-25T13:01:20;13.40;63.90
76263;DHT22;65080;50.908;6.916;2022-11-25T13:04:10;13.40;63.80
76263;DHT22;65080;50.908;6.916;2022-11-25T13:07:04;13.40;63.90
76263;DHT22;65080;50.908;6.916;2022-11-25T13:12:57;13.50;63.80
76263;DHT22;65080;50.908;6.916;2022-11-25T13:15:28;13.40;63.70
76263;DHT22;65080;50.908;6.916;2022-11-25T13:18:06;13.50;63.70
76263;DHT22;65080;50.908;6.916;2022-11-25T13:20:44;13.60;63.50
76263;DHT22;65080;50.908;6.916;2022-11-25T13:23:29;13.70;63.40
76263;DHT22;65080;50.908;6.916;2022-11-25T13:26:44;13.70;63.10
76263;DHT22;65080;50.908;6.916;2022-11-25T13:32:34;13.70;62.90
76263;DHT22;65080;50.908;6.916;2022-11-25T13:35:48;13.70;63.10
76263;DHT22;65080;50.908;6.916;2022-11-25T13:38:38;13.80;62.70
76263;DHT22;65080;50.908;6.916;2022-11-25T13:41:36;13.80;62.80
76263;DHT22;65080;50.908;6.916;2022-11-25T13:44:23;13.80;62.80
76263;DHT22;65080;50.908;6.916;2022-11-25T13:46:55;13.90;62.70
76263;DHT22;65080;50.908;6.916;2022-11-25T13:49:30;13.90;62.50
76263;DHT22;65080;50.908;6.916;2022-11-25T13:52:05;13.80;62.20
76263;DHT22;65080;50.908;6.916;2022-11-25T13:54:37;13.80;62.30
76263;DHT22;65080;50.908;6.916;2022-11-25T13:57:22;13.70;62.20
76263;DHT22;65080;50.908;6.916;2022-11-25T13:59:54;13.70;62.00
76263;DHT22;65080;50.908;6.916;2022-11-25T14:02:36;13.70;62.10
76263;DHT22;65080;50.908;6.916;2022-11-25T14:05:44;13.80;62.10
76263;DHT22;65080;50.908;6.916;2022-11-25T14:08:28;13.70;61.80
76263;DHT22;65080;50.908;6.916;2022-11-25T14:11:19;13.70;61.90
76263;DHT22;65080;50.908;6.916;2022-11-25T14:14:00;13.70;61.90
76263;DHT22;65080;50.908;6.916;2022-11-25T14:16:41;13.70;61.90
76263;DHT22;65080;50.908;6.916;2022-11-25T14:19:21;13.80;62.00
76263;DHT22;65080;50.908;6.916;2022-11-25T14:22:30;13.90;62.00
76263;DHT22;65080;50.908;6.916;2022-11-25T14:25:13;14.10;62.00
76263;DHT22;65080;50.908;6.916;2022-11-25T14:27:45;14.20;61.60
76263;DHT22;65080;50.908;6.916;2022-11-25T14:30:16;14.20;62.40
76263;DHT22;65080;50.908;6.916;2022-11-25T14:32:55;14.30;61.60
76263;DHT22;65080;50.908;6.916;2022-11-25T14:35:31;14.40;61.20
76263;DHT22;65080;50.908;6.916;2022-11-25T14:38:07;14.50;61.20
76263;DHT22;65080;50.908;6.916;2022-11-25T14:40:40;14.60;61.10
76263;DHT22;65080;50.908;6.916;2022-11-25T14:43:13;14.80;60.80
76263;DHT22;65080;50.908;6.916;2022-11-25T14:45:42;14.80;60.50
76263;DHT22;65080;50.908;6.916;2022-11-25T14:48:14;14.80;60.30
76263;DHT22;65080;50.908;6.916;2022-11-25T14:50:54;14.80;60.20
76263;DHT22;65080;50.908;6.916;2022-11-25T14:53:22;14.80;60.20
76263;DHT22;65080;50.908;6.916;2022-11-25T14:55:53;14.80;60.30
76263;DHT22;65080;50.908;6.916;2022-11-25T14:58:26;14.70;60.00
76263;DHT22;65080;50.908;6.916;2022-11-25T15:00:59;14.60;60.10
76263;DHT22;65080;50.908;6.916;2022-11-25T15:03:30;14.50;60.10
76263;DHT22;65080;50.908;6.916;2022-11-25T15:06:02;14.40;60.20
76263;DHT22;65080;50.908;6.916;2022-11-25T15:08:37;14.30;60.30
76263;DHT22;65080;50.908;6.916;2022-11-25T15:11:12;14.30;60.40
76263;DHT22;65080;50.908;6.916;2022-11-25T15:13:42;14.20;60.40
76263;DHT22;65080;50.908;6.916;2022-11-25T15:16:14;14.10;60.50
76263;DHT22;65080;50.908;6.916;2022-11-25T15:18:46;14.00;60.50
76263;DHT22;65080;50.908;6.916;2022-11-25T15:21:18;13.90;60.50
76263;DHT22;65080;50.908;6.916;2022-11-25T15:23:47;13.80;60.70
76263;DHT22;65080;50.908;6.916;2022-11-25T15:26:19;13.70;60.90
76263;DHT22;65080;50.908;6.916;2022-11-25T15:28:53;13.60;61.00
76263;DHT22;65080;50.908;6.916;2022-11-25T15:31:25;13.60;61.30
76263;DHT22;65080;50.908;6.916;2022-11-25T15:33:57;13.50;61.50
76263;DHT22;65080;50.908;6.916;2022-11-25T15:36:26;13.50;61.80
76263;DHT22;65080;50.908;6.916;2022-11-25T15:39:12;13.40;61.80
76263;DHT22;65080;50.908;6.916;2022-11-25T15:41:44;13.40;61.90
76263;DHT22;65080;50.908;6.916;2022-11-25T15:44:23;13.30;61.90
76263;DHT22;65080;50.908;6.916;2022-11-25T15:46:58;13.20;62.00
76263;DHT22;65080;50.908;6.916;2022-11-25T15:49:27;13.20;62.20
76263;DHT22;65080;50.908;6.916;2022-11-25T15:51:59;13.10;62.20
76263;DHT22;65080;50.908;6.916;2022-11-25T15:54:32;13.10;62.40
76263;DHT22;65080;50.908;6.916;2022-11-25T15:57:14;13.00;62.40
76263;DHT22;65080;50.908;6.916;2022-11-25T15:59:49;12.90;62.60
76263;DHT22;65080;50.908;6.916;2022-11-25T16:02:48;12.90;62.80
76263;DHT22;65080;50.908;6.916;2022-11-25T16:05:31;12.80;62.90
76263;DHT22;65080;50.908;6.916;2022-11-25T16:10:53;12.70;63.10
76263;DHT22;65080;50.908;6.916;2022-11-25T16:13:35;12.70;63.30
76263;DHT22;65080;50.908;6.916;2022-11-25T16:16:22;12.70;63.60
76263;DHT22;65080;50.908;6.916;2022-11-25T16:19:12;12.60;63.60
76263;DHT22;65080;50.908;6.916;2022-11-25T16:21:57;12.60;63.80